sensor_id;sensor_type;location;lat;lon;timestamp;pressure;altitude;pressure_sealevel;temperature;humidity
49945;BME280;35838;49.134;9.212;2023-09-12T00:00:03;99485.78;;;20.54;100.00
49945;BME280;35838;49.134;9.212;2023-09-12T00:01:35;99480.66;;;20.51;100.00
49945;BME280;35838;49.134;9.212;2023-09-12T00:03:09;99479.13;;;20.47;100.00
49945;BME280;35838;49.134;9.212;2023-09-12T00:04:40;99478.56;;;20.40;100.00
49945;BME280;35838;49.134;9.212;2023-09-12T00:06:14;99491.06;;;20.37;100.00
49945;BME280;35838;49.134;9.212;2023-09-12T00:07:45;99483.25;;;20.35;100.00
49945;BME280;35838;49.134;9.212;2023-09-12T00:09:18;99488.66;;;20.32;100.00
49945;BME280;35838;49.134;9.212;2023-09-12T00:10:57;99489.69;;;20.29;100.00
49945;BME280;35838;49.134;9.212;2023-09-12T00:12:34;99483.41;;;20.14;100.00
49945;BME280;35838;49.134;9.212;2023-09-12T00:14:05;99485.00;;;20.17;100.00
49945;BME280;35838;49.134;9.212;2023-09-12T00:15:39;99481.38;;;20.19;100.00
49945;BME280;35838;49.134;9.212;2023-09-12T00:17:10;99483.03;;;20.22;100.00
49945;BME280;35838;49.134;9.212;2023-09-12T00:18:44;99485.72;;;20.20;100.00
49945;BME280;35838;49.134;9.212;2023-09-12T00:20:18;99479.75;;;20.17;100.00
49945;BME280;35838;49.134;9.212;2023-09-12T00:21:49;99483.78;;;20.07;100.00
49945;BME280;35838;49.134;9.212;2023-09-12T00:23:23;99481.91;;;20.09;100.00
49945;BME280;35838;49.134;9.212;2023-09-12T00:24:57;99480.22;;;20.08;100.00
49945;BME280;35838;49.134;9.212;2023-09-12T00:26:28;99485.34;;;20.11;100.00
49945;BME280;35838;49.134;9.212;2023-09-12T00:28:05;99475.59;;;20.13;100.00
49945;BME280;35838;49.134;9.212;2023-09-12T00:29:36;99472.94;;;20.13;100.00
49945;BME280;35838;49.134;9.212;2023-09-12T00:31:10;99472.94;;;20.13;100.00
49945;BME280;35838;49.134;9.212;2023-09-12T00:32:41;99478.72;;;20.19;100.00
49945;BME280;35838;49.134;9.212;2023-09-12T00:34:15;99480.84;;;20.13;100.00
49945;BME280;35838;49.134;9.212;2023-09-12T00:35:46;99481.00;;;20.10;100.00
49945;BME280;35838;49.134;9.212;2023-09-12T00:37:20;99482.06;;;20.06;100.00
49945;BME280;35838;49.134;9.212;2023-09-12T00:38:51;99489.22;;;20.03;100.00
49945;BME280;35838;49.134;9.212;2023-09-12T00:40:24;99478.69;;;20.03;100.00
49945;BME280;35838;49.134;9.212;2023-09-12T00:41:56;99481.13;;;20.07;100.00
49945;BME280;35838;49.134;9.212;2023-09-12T00:43:32;99480.38;;;20.04;100.00
49945;BME280;35838;49.134;9.212;2023-09-12T00:45:03;99483.84;;;20.05;100.00
49945;BME280;35838;49.134;9.212;2023-09-12T00:46:37;99480.53;;;20.01;100.00
49945;BME280;35838;49.134;9.212;2023-09-12T00:48:08;99477.66;;;20.06;100.00
49945;BME280;35838;49.134;9.212;2023-09-12T00:49:42;99479.84;;;19.98;100.00
49945;BME280;35838;49.134;9.212;2023-09-12T00:51:14;99478.13;;;19.97;100.00
49945;BME280;35838;49.134;9.212;2023-09-12T00:52:49;99478.13;;;19.97;100.00
49945;BME280;35838;49.134;9.212;2023-09-12T00:54:20;99478.97;;;19.97;100.00
49945;BME280;35838;49.134;9.212;2023-09-12T00:55:54;99478.97;;;19.97;100.00
49945;BME280;35838;49.134;9.212;2023-09-12T00:57:27;99475.84;;;19.89;100.00
49945;BME280;35838;49.134;9.212;2023-09-12T00:59:04;99475.53;;;19.78;100.00
49945;BME280;35838;49.134;9.212;2023-09-12T01:00:38;99469.25;;;19.80;100.00
49945;BME280;35838;49.134;9.212;2023-09-12T01:02:09;99471.09;;;19.78;100.00
49945;BME280;35838;49.134;9.212;2023-09-12T01:03:42;99468.31;;;19.81;100.00
49945;BME280;35838;49.134;9.212;2023-09-12T01:05:16;99468.25;;;19.83;100.00
49945;BME280;35838;49.134;9.212;2023-09-12T01:06:47;99468.38;;;19.80;100.00
49945;BME280;35838;49.134;9.212;2023-09-12T01:08:21;99475.53;;;19.78;100.00
49945;BME280;35838;49.134;9.212;2023-09-12T01:09:52;99472.72;;;19.81;100.00
49945;BME280;35838;49.134;9.212;2023-09-12T01:11:26;99473.50;;;19.83;100.00
49945;BME280;35838;49.134;9.212;2023-09-12T01:12:57;99473.50;;;19.83;100.00
49945;BME280;35838;49.134;9.212;2023-09-12T01:14:34;99477.97;;;19.81;100.00
49945;BME280;35838;49.134;9.212;2023-09-12T01:16:05;99483.41;;;19.78;100.00
49945;BME280;35838;49.134;9.212;2023-09-12T01:17:39;99481.84;;;19.73;100.00
49945;BME280;35838;49.134;9.212;2023-09-12T01:19:10;99484.78;;;19.67;100.00
49945;BME280;35838;49.134;9.212;2023-09-12T01:20:49;99484.72;;;19.69;100.00
49945;BME280;35838;49.134;9.212;2023-09-12T01:22:27;99483.91;;;19.67;100.00
49945;BME280;35838;49.134;9.212;2023-09-12T01:24:12;99484.78;;;19.67;100.00
49945;BME280;35838;49.134;9.212;2023-09-12T01:26:01;99490.19;;;19.64;100.00
49945;BME280;35838;49.134;9.212;2023-09-12T01:27:40;99489.56;;;19.59;100.00
49945;BME280;35838;49.134;9.212;2023-09-12T01:29:12;99489.41;;;19.62;100.00
49945;BME280;35838;49.134;9.212;2023-09-12T01:30:46;99492.44;;;19.54;100.00
49945;BME280;35838;49.134;9.212;2023-09-12T01:32:19;99491.72;;;19.51;100.00
49945;BME280;35838;49.134;9.212;2023-09-12T01:33:54;99497.91;;;19.50;100.00
49945;BME280;35838;49.134;9.212;2023-09-12T01:35:25;99491.94;;;19.46;100.00
49945;BME280;35838;49.134;9.212;2023-09-12T01:36:59;99488.31;;;19.49;100.00
49945;BME280;35838;49.134;9.212;2023-09-12T01:38:30;99490.00;;;19.50;100.00
49945;BME280;35838;49.134;9.212;2023-09-12T01:40:04;99484.03;;;19.46;100.00
49945;BME280;35838;49.134;9.212;2023-09-12T01:41:37;99489.44;;;19.43;100.00
49945;BME280;35838;49.134;9.212;2023-09-12T01:43:15;99487.63;;;19.26;100.00
49945;BME280;35838;49.134;9.212;2023-09-12T01:44:49;99485.91;;;19.25;100.00
49945;BME280;35838;49.134;9.212;2023-09-12T01:46:23;99483.56;;;19.19;100.00
49945;BME280;35838;49.134;9.212;2023-09-12T01:47:55;99484.03;;;19.27;100.00
49945;BME280;35838;49.134;9.212;2023-09-12T01:49:29;99474.53;;;19.24;100.00
49945;BME280;35838;49.134;9.212;2023-09-12T01:51:00;99480.56;;;19.26;100.00
49945;BME280;35838;49.134;9.212;2023-09-12T01:52:35;99480.66;;;19.25;100.00
49945;BME280;35838;49.134;9.212;2023-09-12T01:54:07;99479.94;;;19.21;100.00
49945;BME280;35838;49.134;9.212;2023-09-12T01:55:41;99482.63;;;19.20;100.00
49945;BME280;35838;49.134;9.212;2023-09-12T01:57:12;99486.03;;;19.22;100.00
49945;BME280;35838;49.134;9.212;2023-09-12T01:58:49;99483.28;;;19.25;100.00
49945;BME280;35838;49.134;9.212;2023-09-12T02:00:21;99478.06;;;19.23;100.00
49945;BME280;35838;49.134;9.212;2023-09-12T02:01:54;99478.06;;;19.23;100.00
49945;BME280;35838;49.134;9.212;2023-09-12T02:03:25;99479.78;;;19.24;100.00
49945;BME280;35838;49.134;9.212;2023-09-12T02:05:02;99476.31;;;19.24;100.00
49945;BME280;35838;49.134;9.212;2023-09-12T02:06:35;99482.28;;;19.28;100.00
49945;BME280;35838;49.134;9.212;2023-09-12T02:08:09;99478.94;;;19.24;100.00
49945;BME280;35838;49.134;9.212;2023-09-12T02:09:40;99473.69;;;19.24;100.00
49945;BME280;35838;49.134;9.212;2023-09-12T02:11:14;99471.75;;;19.28;100.00
49945;BME280;35838;49.134;9.212;2023-09-12T02:12:47;99471.97;;;19.23;100.00
49945;BME280;35838;49.134;9.212;2023-09-12T02:14:21;99469.56;;;19.18;100.00
49945;BME280;35838;49.134;9.212;2023-09-12T02:15:58;99467.97;;;19.14;100.00
49945;BME280;35838;49.134;9.212;2023-09-12T02:17:29;99472.41;;;19.14;100.00
49945;BME280;35838;49.134;9.212;2023-09-12T02:19:03;99475.66;;;19.19;100.00
49945;BME280;35838;49.134;9.212;2023-09-12T02:20:37;99471.19;;;19.21;100.00
49945;BME280;35838;49.134;9.212;2023-09-12T02:22:11;99466.84;;;19.20;100.00
49945;BME280;35838;49.134;9.212;2023-09-12T02:23:42;99475.66;;;19.19;100.00
49945;BME280;35838;49.134;9.212;2023-09-12T02:26:49;99472.09;;;19.20;100.00
49945;BME280;35838;49.134;9.212;2023-09-12T02:28:22;99469.47;;;19.20;100.00
49945;BME280;35838;49.134;9.212;2023-09-12T02:29:56;99470.34;;;19.20;100.00
49945;BME280;35838;49.134;9.212;2023-09-12T02:31:30;99465.13;;;19.19;100.00
49945;BME280;35838;49.134;9.212;2023-09-12T02:33:01;99473.94;;;19.18;100.00
49945;BME280;35838;49.134;9.212;2023-09-12T02:34:34;99473.81;;;19.21;100.00
49945;BME280;35838;49.134;9.212;2023-09-12T02:36:06;99472.19;;;19.18;100.00
49945;BME280;35838;49.134;9.212;2023-09-12T02:37:39;99477.25;;;19.23;100.00
49945;BME280;35838;49.134;9.212;2023-09-12T02:39:10;99469.69;;;19.15;100.00
49945;BME280;35838;49.134;9.212;2023-09-12T02:40:45;99468.97;;;19.12;100.00
49945;BME280;35838;49.134;9.212;2023-09-12T02:42:15;99467.44;;;19.07;100.00
49945;BME280;35838;49.134;9.212;2023-09-12T02:43:49;99463.09;;;19.06;100.00
49945;BME280;35838;49.134;9.212;2023-09-12T02:45:25;99472.69;;;19.07;100.00
49945;BME280;35838;49.134;9.212;2023-09-12T02:46:56;99472.28;;;19.17;100.00
49945;BME280;35838;49.134;9.212;2023-09-12T02:48:30;99471.47;;;19.15;100.00
49945;BME280;35838;49.134;9.212;2023-09-12T02:50:01;99470.56;;;19.16;100.00
49945;BME280;35838;49.134;9.212;2023-09-12T02:51:37;99474.13;;;19.15;100.00
49945;BME280;35838;49.134;9.212;2023-09-12T02:53:08;99471.31;;;19.18;100.00
49945;BME280;35838;49.134;9.212;2023-09-12T02:54:42;99473.25;;;19.14;100.00
49945;BME280;35838;49.134;9.212;2023-09-12T02:56:13;99471.09;;;19.22;100.00
49945;BME280;35838;49.134;9.212;2023-09-12T02:57:46;99469.44;;;19.21;100.00
49945;BME280;35838;49.134;9.212;2023-09-12T02:59:18;99458.97;;;19.20;100.00
49945;BME280;35838;49.134;9.212;2023-09-12T03:00:54;99457.84;;;19.06;100.00
49945;BME280;35838;49.134;9.212;2023-09-12T03:02:25;99464.31;;;18.99;100.00
49945;BME280;35838;49.134;9.212;2023-09-12T03:03:59;99466.16;;;18.97;100.00
49945;BME280;35838;49.134;9.212;2023-09-12T03:05:33;99467.16;;;18.94;100.00
49945;BME280;35838;49.134;9.212;2023-09-12T03:07:04;99461.69;;;18.99;100.00
49945;BME280;35838;49.134;9.212;2023-09-12T03:08:38;99457.47;;;18.95;100.00
49945;BME280;35838;49.134;9.212;2023-09-12T03:10:10;99458.50;;;18.91;100.00
49945;BME280;35838;49.134;9.212;2023-09-12T03:11:43;99447.47;;;18.83;100.00
49945;BME280;35838;49.134;9.212;2023-09-12T03:13:14;99457.84;;;18.86;100.00
49945;BME280;35838;49.134;9.212;2023-09-12T03:14:48;99453.13;;;18.73;100.00
49945;BME280;35838;49.134;9.212;2023-09-12T03:16:21;99458.41;;;18.73;100.00
49945;BME280;35838;49.134;9.212;2023-09-12T03:17:56;99461.25;;;18.69;100.00
49945;BME280;35838;49.134;9.212;2023-09-12T03:19:27;99463.03;;;18.68;100.00
49945;BME280;35838;49.134;9.212;2023-09-12T03:21:03;99460.25;;;18.71;100.00
49945;BME280;35838;49.134;9.212;2023-09-12T03:22:34;99469.91;;;18.71;100.00
49945;BME280;35838;49.134;9.212;2023-09-12T03:24:08;99457.38;;;18.57;100.00
49945;BME280;35838;49.134;9.212;2023-09-12T03:25:39;99455.63;;;18.57;100.00
49945;BME280;35838;49.134;9.212;2023-09-12T03:27:12;99460.94;;;18.56;100.00
49945;BME280;35838;49.134;9.212;2023-09-12T03:28:43;99467.50;;;18.66;100.00
49945;BME280;35838;49.134;9.212;2023-09-12T03:30:17;99474.81;;;18.59;100.00
49945;BME280;35838;49.134;9.212;2023-09-12T03:31:53;99470.47;;;18.58;100.00
49945;BME280;35838;49.134;9.212;2023-09-12T03:33:26;99468.81;;;18.56;100.00
49945;BME280;35838;49.134;9.212;2023-09-12T03:34:57;99464.81;;;18.47;100.00
49945;BME280;35838;49.134;9.212;2023-09-12T03:36:31;99465.03;;;18.42;100.00
49945;BME280;35838;49.134;9.212;2023-09-12T03:38:04;99473.38;;;18.31;100.00
49945;BME280;35838;49.134;9.212;2023-09-12T03:39:35;99465.44;;;18.33;100.00
49945;BME280;35838;49.134;9.212;2023-09-12T03:41:09;99468.16;;;18.30;100.00
49945;BME280;35838;49.134;9.212;2023-09-12T03:42:41;99463.44;;;18.38;100.00
49945;BME280;35838;49.134;9.212;2023-09-12T03:44:14;99460.97;;;18.35;100.00
49945;BME280;35838;49.134;9.212;2023-09-12T03:45:45;99458.38;;;18.33;100.00
49945;BME280;35838;49.134;9.212;2023-09-12T03:47:22;99471.47;;;18.35;100.00
49945;BME280;35838;49.134;9.212;2023-09-12T03:48:53;99470.19;;;18.44;100.00
49945;BME280;35838;49.134;9.212;2023-09-12T03:50:26;99464.94;;;18.44;100.00
49945;BME280;35838;49.134;9.212;2023-09-12T03:51:57;99468.66;;;18.40;100.00
49945;BME280;35838;49.134;9.212;2023-09-12T03:53:31;99471.06;;;18.44;100.00
49945;BME280;35838;49.134;9.212;2023-09-12T03:55:05;99468.28;;;18.47;100.00
49945;BME280;35838;49.134;9.212;2023-09-12T03:56:36;99474.22;;;18.53;100.00
49945;BME280;35838;49.134;9.212;2023-09-12T03:58:09;99469.47;;;18.61;100.00
49945;BME280;35838;49.134;9.212;2023-09-12T03:59:40;99471.03;;;18.65;100.00
49945;BME280;35838;49.134;9.212;2023-09-12T04:01:14;99461.38;;;18.66;100.00
49945;BME280;35838;49.134;9.212;2023-09-12T04:02:48;99467.44;;;18.68;100.00
49945;BME280;35838;49.134;9.212;2023-09-12T04:04:21;99458.56;;;18.70;100.00
49945;BME280;35838;49.134;9.212;2023-09-12T04:05:53;99461.25;;;18.69;100.00
49945;BME280;35838;49.134;9.212;2023-09-12T04:07:26;99457.06;;;18.64;100.00
49945;BME280;35838;49.134;9.212;2023-09-12T04:08:57;99457.13;;;18.63;100.00
49945;BME280;35838;49.134;9.212;2023-09-12T04:10:31;99450.00;;;18.65;100.00
49945;BME280;35838;49.134;9.212;2023-09-12T04:12:03;99449.28;;;18.61;100.00
49945;BME280;35838;49.134;9.212;2023-09-12T04:13:37;99447.59;;;18.60;100.00
49945;BME280;35838;49.134;9.212;2023-09-12T04:15:08;99453.72;;;18.61;100.00
49945;BME280;35838;49.134;9.212;2023-09-12T04:16:42;99451.72;;;18.66;100.00
49945;BME280;35838;49.134;9.212;2023-09-12T04:18:16;99450.59;;;18.72;100.00
49945;BME280;35838;49.134;9.212;2023-09-12T04:19:49;99455.94;;;18.70;100.00
49945;BME280;35838;49.134;9.212;2023-09-12T04:21:20;99456.84;;;18.69;100.00
49945;BME280;35838;49.134;9.212;2023-09-12T04:22:54;99460.69;;;18.62;100.00
49945;BME280;35838;49.134;9.212;2023-09-12T04:24:25;99467.22;;;18.72;100.00
49945;BME280;35838;49.134;9.212;2023-09-12T04:25:58;99463.94;;;18.67;100.00
49945;BME280;35838;49.134;9.212;2023-09-12T04:27:33;99456.13;;;18.66;100.00
49945;BME280;35838;49.134;9.212;2023-09-12T04:29:07;99455.25;;;18.65;100.00
49945;BME280;35838;49.134;9.212;2023-09-12T04:30:41;99459.97;;;18.58;100.00
49945;BME280;35838;49.134;9.212;2023-09-12T04:32:14;99450.28;;;18.59;100.00
49945;BME280;35838;49.134;9.212;2023-09-12T04:33:50;99456.97;;;18.66;100.00
49945;BME280;35838;49.134;9.212;2023-09-12T04:35:23;99457.34;;;18.58;100.00
49945;BME280;35838;49.134;9.212;2023-09-12T04:36:55;99460.41;;;18.68;100.00
49945;BME280;35838;49.134;9.212;2023-09-12T04:38:29;99460.53;;;18.65;100.00
49945;BME280;35838;49.134;9.212;2023-09-12T04:40:00;99462.22;;;18.66;100.00
49945;BME280;35838;49.134;9.212;2023-09-12T04:41:35;99461.97;;;18.72;100.00
49945;BME280;35838;49.134;9.212;2023-09-12T04:43:08;99461.81;;;18.75;100.00
49945;BME280;35838;49.134;9.212;2023-09-12T04:44:41;99459.06;;;18.78;100.00
49945;BME280;35838;49.134;9.212;2023-09-12T04:46:12;99454.44;;;18.84;100.00
49945;BME280;35838;49.134;9.212;2023-09-12T04:47:46;99454.31;;;18.87;100.00
49945;BME280;35838;49.134;9.212;2023-09-12T04:49:22;99457.00;;;18.85;100.00
49945;BME280;35838;49.134;9.212;2023-09-12T04:50:53;99458.06;;;18.81;100.00
49945;BME280;35838;49.134;9.212;2023-09-12T04:52:28;99456.31;;;18.82;100.00
49945;BME280;35838;49.134;9.212;2023-09-12T04:54:02;99458.19;;;18.78;100.00
49945;BME280;35838;49.134;9.212;2023-09-12T04:55:34;99456.84;;;18.88;100.00
49945;BME280;35838;49.134;9.212;2023-09-12T04:57:08;99458.66;;;18.88;100.00
49945;BME280;35838;49.134;9.212;2023-09-12T04:58:42;99462.81;;;18.93;100.00
49945;BME280;35838;49.134;9.212;2023-09-12T05:00:13;99466.38;;;18.91;100.00
49945;BME280;35838;49.134;9.212;2023-09-12T05:01:47;99470.09;;;18.87;100.00
49945;BME280;35838;49.134;9.212;2023-09-12T05:03:18;99477.19;;;18.85;100.00
49945;BME280;35838;49.134;9.212;2023-09-12T05:04:54;99468.66;;;18.79;100.00
49945;BME280;35838;49.134;9.212;2023-09-12T05:06:25;99458.84;;;18.83;100.00
49945;BME280;35838;49.134;9.212;2023-09-12T05:07:59;99461.41;;;18.85;100.00
49945;BME280;35838;49.134;9.212;2023-09-12T05:09:30;99466.81;;;18.82;100.00
49945;BME280;35838;49.134;9.212;2023-09-12T05:11:03;99456.94;;;18.87;100.00
49945;BME280;35838;49.134;9.212;2023-09-12T05:12:37;99461.19;;;18.89;100.00
49945;BME280;35838;49.134;9.212;2023-09-12T05:14:11;99462.13;;;18.88;100.00
49945;BME280;35838;49.134;9.212;2023-09-12T05:15:42;99455.63;;;18.97;100.00
49945;BME280;35838;49.134;9.212;2023-09-12T05:17:15;99458.31;;;18.95;100.00
49945;BME280;35838;49.134;9.212;2023-09-12T05:18:46;99451.78;;;19.04;100.00
49945;BME280;35838;49.134;9.212;2023-09-12T05:20:24;99458.59;;;19.08;100.00
49945;BME280;35838;49.134;9.212;2023-09-12T05:21:57;99455.97;;;19.08;100.00
49945;BME280;35838;49.134;9.212;2023-09-12T05:23:28;99454.22;;;19.09;100.00
49945;BME280;35838;49.134;9.212;2023-09-12T05:25:02;99460.78;;;19.18;100.00
49945;BME280;35838;49.134;9.212;2023-09-12T05:26:33;99456.63;;;19.14;100.00
49945;BME280;35838;49.134;9.212;2023-09-12T05:28:07;99455.03;;;19.09;100.00
49945;BME280;35838;49.134;9.212;2023-09-12T05:29:38;99455.34;;;19.03;100.00
49945;BME280;35838;49.134;9.212;2023-09-12T05:31:11;99460.50;;;18.86;100.00
49945;BME280;35838;49.134;9.212;2023-09-12T05:32:42;99462.81;;;18.92;100.00
49945;BME280;35838;49.134;9.212;2023-09-12T05:34:16;99464.56;;;18.93;100.00
49945;BME280;35838;49.134;9.212;2023-09-12T05:35:50;99462.44;;;19.01;100.00
49945;BME280;35838;49.134;9.212;2023-09-12T05:37:23;99475.75;;;18.98;100.00
49945;BME280;35838;49.134;9.212;2023-09-12T05:38:54;99479.09;;;19.02;100.00
49945;BME280;35838;49.134;9.212;2023-09-12T05:40:28;99468.34;;;19.06;100.00
49945;BME280;35838;49.134;9.212;2023-09-12T05:41:59;99466.47;;;19.08;100.00
49945;BME280;35838;49.134;9.212;2023-09-12T05:43:32;99470.56;;;19.16;100.00
49945;BME280;35838;49.134;9.212;2023-09-12T05:45:04;99470.41;;;19.19;100.00
49945;BME280;35838;49.134;9.212;2023-09-12T05:46:38;99464.66;;;19.10;100.00
49945;BME280;35838;49.134;9.212;2023-09-12T05:48:11;99472.31;;;19.15;100.00
49945;BME280;35838;49.134;9.212;2023-09-12T05:49:42;99466.28;;;19.13;100.00
49945;BME280;35838;49.134;9.212;2023-09-12T05:51:18;99471.31;;;19.18;100.00
49945;BME280;35838;49.134;9.212;2023-09-12T05:52:52;99476.03;;;19.11;100.00
49945;BME280;35838;49.134;9.212;2023-09-12T05:54:26;99474.53;;;19.05;100.00
49945;BME280;35838;49.134;9.212;2023-09-12T05:55:57;99472.53;;;19.10;100.00
49945;BME280;35838;49.134;9.212;2023-09-12T05:57:31;99477.09;;;19.26;100.00
49945;BME280;35838;49.134;9.212;2023-09-12T05:59:03;99473.75;;;19.41;100.00
49945;BME280;35838;49.134;9.212;2023-09-12T06:00:37;99467.25;;;19.49;100.00
49945;BME280;35838;49.134;9.212;2023-09-12T06:02:08;99467.81;;;19.55;100.00
49945;BME280;35838;49.134;9.212;2023-09-12T06:03:42;99468.34;;;19.62;100.00
49945;BME280;35838;49.134;9.212;2023-09-12T06:05:13;99477.34;;;19.58;100.00
49945;BME280;35838;49.134;9.212;2023-09-12T06:06:50;99475.41;;;19.62;100.00
49945;BME280;35838;49.134;9.212;2023-09-12T06:08:21;99481.47;;;19.64;100.00
49945;BME280;35838;49.134;9.212;2023-09-12T06:09:54;99474.41;;;19.64;100.00
49945;BME280;35838;49.134;9.212;2023-09-12T06:11:25;99479.44;;;19.69;100.00
49945;BME280;35838;49.134;9.212;2023-09-12T06:12:59;99476.72;;;19.70;100.00
49945;BME280;35838;49.134;9.212;2023-09-12T06:14:30;99491.59;;;19.71;100.00
49945;BME280;35838;49.134;9.212;2023-09-12T06:16:04;99497.56;;;19.75;100.00
49945;BME280;35838;49.134;9.212;2023-09-12T06:17:37;99500.75;;;19.82;100.00
49945;BME280;35838;49.134;9.212;2023-09-12T06:19:08;99499.97;;;19.80;100.00
49945;BME280;35838;49.134;9.212;2023-09-12T06:20:42;99498.50;;;19.93;100.00
49945;BME280;35838;49.134;9.212;2023-09-12T06:22:16;99493.09;;;19.96;100.00
49945;BME280;35838;49.134;9.212;2023-09-12T06:24:07;99499.19;;;19.97;100.00
49945;BME280;35838;49.134;9.212;2023-09-12T06:25:38;99495.06;;;19.91;100.00
49945;BME280;35838;49.134;9.212;2023-09-12T06:27:12;99498.03;;;20.02;100.00
49945;BME280;35838;49.134;9.212;2023-09-12T06:28:49;99497.13;;;20.03;100.00
49945;BME280;35838;49.134;9.212;2023-09-12T06:30:22;99500.28;;;20.10;100.00
49945;BME280;35838;49.134;9.212;2023-09-12T06:31:56;99504.56;;;20.13;100.00
49945;BME280;35838;49.134;9.212;2023-09-12T06:33:30;99505.63;;;20.09;100.00
49945;BME280;35838;49.134;9.212;2023-09-12T06:35:00;99495.31;;;20.04;100.00
49945;BME280;35838;49.134;9.212;2023-09-12T06:36:34;99496.09;;;20.06;100.00
49945;BME280;35838;49.134;9.212;2023-09-12T06:38:08;99495.19;;;20.07;100.00
49945;BME280;35838;49.134;9.212;2023-09-12T06:39:41;99497.72;;;20.09;100.00
49945;BME280;35838;49.134;9.212;2023-09-12T06:41:12;99503.84;;;20.09;100.00
49945;BME280;35838;49.134;9.212;2023-09-12T06:42:46;99510.44;;;20.18;100.00
49945;BME280;35838;49.134;9.212;2023-09-12T06:44:17;99498.97;;;20.19;100.00
49945;BME280;35838;49.134;9.212;2023-09-12T06:45:50;99512.75;;;20.24;100.00
49945;BME280;35838;49.134;9.212;2023-09-12T06:47:21;99514.16;;;20.31;100.00
49945;BME280;35838;49.134;9.212;2023-09-12T06:48:55;99504.22;;;20.37;100.00
49945;BME280;35838;49.134;9.212;2023-09-12T06:50:29;99501.75;;;20.33;100.00
49945;BME280;35838;49.134;9.212;2023-09-12T06:52:02;99512.28;;;20.33;100.00
49945;BME280;35838;49.134;9.212;2023-09-12T06:53:36;99509.03;;;20.28;100.00
49945;BME280;35838;49.134;9.212;2023-09-12T06:55:10;99506.72;;;20.22;100.00
49945;BME280;35838;49.134;9.212;2023-09-12T06:56:44;99511.44;;;20.33;100.00
49945;BME280;35838;49.134;9.212;2023-09-12T06:58:15;99514.63;;;20.40;100.00
49945;BME280;35838;49.134;9.212;2023-09-12T06:59:48;99510.41;;;20.53;100.00
49945;BME280;35838;49.134;9.212;2023-09-12T07:01:19;99503.44;;;20.52;100.00
49945;BME280;35838;49.134;9.212;2023-09-12T07:02:53;99511.97;;;20.57;100.00
49945;BME280;35838;49.134;9.212;2023-09-12T07:04:24;99505.69;;;20.60;100.00
49945;BME280;35838;49.134;9.212;2023-09-12T07:05:58;99496.91;;;20.59;100.00
49945;BME280;35838;49.134;9.212;2023-09-12T07:07:29;99497.88;;;20.58;100.00
49945;BME280;35838;49.134;9.212;2023-09-12T07:09:05;99495.94;;;20.62;100.00
49945;BME280;35838;49.134;9.212;2023-09-12T07:10:43;99493.53;;;20.57;100.00
49945;BME280;35838;49.134;9.212;2023-09-12T07:12:16;99498.94;;;20.54;100.00
49945;BME280;35838;49.134;9.212;2023-09-12T07:13:47;99497.16;;;20.55;100.00
49945;BME280;35838;49.134;9.212;2023-09-12T07:15:21;99503.38;;;20.54;100.00
49945;BME280;35838;49.134;9.212;2023-09-12T07:16:52;99491.03;;;20.54;100.00
49945;BME280;35838;49.134;9.212;2023-09-12T07:18:26;99490.47;;;20.65;100.00
49945;BME280;35838;49.134;9.212;2023-09-12T07:19:57;99496.84;;;20.61;100.00
49945;BME280;35838;49.134;9.212;2023-09-12T07:21:31;99498.13;;;20.70;100.00
49945;BME280;35838;49.134;9.212;2023-09-12T07:23:02;99493.03;;;20.66;100.00
49945;BME280;35838;49.134;9.212;2023-09-12T07:24:38;99497.25;;;20.53;100.00
49945;BME280;35838;49.134;9.212;2023-09-12T07:26:11;99495.72;;;20.49;100.00
49945;BME280;35838;49.134;9.212;2023-09-12T07:27:45;99494.00;;;20.48;100.00
49945;BME280;35838;49.134;9.212;2023-09-12T07:29:16;99499.63;;;20.58;100.00
49945;BME280;35838;49.134;9.212;2023-09-12T07:30:50;99499.16;;;20.67;100.00
49945;BME280;35838;49.134;9.212;2023-09-12T07:32:21;99504.13;;;20.73;100.00
49945;BME280;35838;49.134;9.212;2023-09-12T07:33:54;99494.44;;;20.74;100.00
49945;BME280;35838;49.134;9.212;2023-09-12T07:35:26;99495.97;;;20.78;100.00
49945;BME280;35838;49.134;9.212;2023-09-12T07:37:01;99491.38;;;20.81;100.00
49945;BME280;35838;49.134;9.212;2023-09-12T07:38:34;99495.50;;;20.87;100.00
49945;BME280;35838;49.134;9.212;2023-09-12T07:40:10;99489.91;;;20.93;100.00
49945;BME280;35838;49.134;9.212;2023-09-12T07:41:44;99495.09;;;20.95;100.00
49945;BME280;35838;49.134;9.212;2023-09-12T07:43:18;99488.69;;;20.99;100.00
49945;BME280;35838;49.134;9.212;2023-09-12T07:44:49;99499.38;;;21.13;100.00
49945;BME280;35838;49.134;9.212;2023-09-12T07:46:22;99492.31;;;21.14;100.00
49945;BME280;35838;49.134;9.212;2023-09-12T07:47:56;99493.41;;;21.26;100.00
49945;BME280;35838;49.134;9.212;2023-09-12T07:49:27;99495.63;;;21.34;100.00
49945;BME280;35838;49.134;9.212;2023-09-12T07:51:01;99489.25;;;21.38;100.00
49945;BME280;35838;49.134;9.212;2023-09-12T07:52:32;99489.94;;;21.41;100.00
49945;BME280;35838;49.134;9.212;2023-09-12T07:54:06;99486.69;;;21.52;100.00
49945;BME280;35838;49.134;9.212;2023-09-12T07:55:39;99495.06;;;21.60;100.00
49945;BME280;35838;49.134;9.212;2023-09-12T07:57:16;99491.28;;;21.65;100.00
49945;BME280;35838;49.134;9.212;2023-09-12T07:58:48;99500.66;;;21.70;100.00
49945;BME280;35838;49.134;9.212;2023-09-12T08:00:21;99503.56;;;21.66;100.00
49945;BME280;35838;49.134;9.212;2023-09-12T08:01:52;99506.22;;;21.66;100.00
49945;BME280;35838;49.134;9.212;2023-09-12T08:03:26;99502.88;;;21.78;100.00
49945;BME280;35838;49.134;9.212;2023-09-12T08:04:58;99504.38;;;21.82;100.00
49945;BME280;35838;49.134;9.212;2023-09-12T08:06:31;99501.31;;;21.90;100.00
49945;BME280;35838;49.134;9.212;2023-09-12T08:08:03;99498.72;;;22.04;100.00